Time;durP1;ratioP1;P1;durP2;ratioP2;P2;SDS_P1;SDS_P2;PMS_P1;PMS_P2;Temp;Humidity;BMP_temperature;BMP_pressure;BME280_temperature;BME280_humidity;BME280_pressure;Samples;Min_cycle;Max_cycle;Signal;HPM_P1;HPM_P2
2023/07/04 00:00:12;;;;;;;3.67;2.50;;;;;;;;;;5014853;28;20419;-84
2023/07/04 00:02:38;;;;;;;4.50;2.50;;;;;;;;;;5014910;28;20778;-84
2023/07/04 00:05:05;;;;;;;4.35;2.60;;;;;;;;;;5028313;28;20894;-83
2023/07/04 00:07:34;;;;;;;4.35;2.60;;;;;;;;;;5025715;28;20891;-83
2023/07/04 00:10:00;;;;;;;3.78;2.75;;;;;;;;;;5016904;28;20901;-83
2023/07/04 00:12:26;;;;;;;4.03;2.20;;;;;;;;;;5013687;28;20381;-83
2023/07/04 00:14:52;;;;;;;3.10;2.55;;;;;;;;;;5014523;28;20997;-83
2023/07/04 00:17:18;;;;;;;4.68;2.58;;;;;;;;;;5014760;28;20480;-83
2023/07/04 00:19:47;;;;;;;5.53;2.80;;;;;;;;;;5014568;28;20429;-83
2023/07/04 00:22:13;;;;;;;3.40;2.40;;;;;;;;;;5014489;28;20377;-84
2023/07/04 00:24:39;;;;;;;4.65;2.83;;;;;;;;;;5014289;28;20619;-83
2023/07/04 00:27:05;;;;;;;4.77;2.50;;;;;;;;;;5014323;28;20504;-83
2023/07/04 00:29:31;;;;;;;3.42;2.50;;;;;;;;;;5014189;28;20403;-84
2023/07/04 00:31:58;;;;;;;4.50;2.80;;;;;;;;;;5014077;28;20388;-84
2023/07/04 00:34:24;;;;;;;3.70;2.83;;;;;;;;;;4996239;28;20422;-84
2023/07/04 00:36:50;;;;;;;3.28;2.38;;;;;;;;;;5025440;28;20477;-84
2023/07/04 00:39:16;;;;;;;3.33;2.40;;;;;;;;;;5024903;28;20482;-84
2023/07/04 00:41:42;;;;;;;3.55;2.40;;;;;;;;;;5014203;28;20385;-84
2023/07/04 00:44:30;;;;;;;3.40;2.20;;;;;;;;;;4996447;28;20459;-83
2023/07/04 00:47:06;;;;;;;4.13;2.60;;;;;;;;;;5014075;28;20463;-84
2023/07/04 00:49:57;;;;;;;4.05;2.75;;;;;;;;;;5013847;28;20365;-83
2023/07/04 00:52:25;;;;;;;3.47;2.50;;;;;;;;;;5013816;28;20381;-84
2023/07/04 00:54:57;;;;;;;3.83;2.50;;;;;;;;;;5014011;28;20878;-84
2023/07/04 00:57:31;;;;;;;3.75;2.40;;;;;;;;;;5013888;28;20476;-83
2023/07/04 01:00:00;;;;;;;5.40;2.30;;;;;;;;;;5013652;28;20392;-83
2023/07/04 01:02:29;;;;;;;3.75;2.15;;;;;;;;;;5013575;28;20420;-83
2023/07/04 01:04:55;;;;;;;4.00;2.38;;;;;;;;;;5027383;28;20417;-84
2023/07/04 01:07:39;;;;;;;2.80;2.05;;;;;;;;;;5013527;28;20379;-83
2023/07/04 01:10:11;;;;;;;3.88;2.42;;;;;;;;;;5013406;28;20400;-83
2023/07/04 01:12:39;;;;;;;3.45;2.33;;;;;;;;;;5013669;28;20396;-83
2023/07/04 01:15:05;;;;;;;4.22;2.13;;;;;;;;;;5013595;28;20385;-84
2023/07/04 01:17:31;;;;;;;2.42;2.20;;;;;;;;;;5013407;28;20412;-83
2023/07/04 01:19:58;;;;;;;3.08;2.25;;;;;;;;;;5013363;28;20396;-84
2023/07/04 01:22:36;;;;;;;2.45;2.13;;;;;;;;;;5013352;28;20874;-83
2023/07/04 01:25:25;;;;;;;2.67;1.95;;;;;;;;;;5024843;28;20777;-84
2023/07/04 01:27:55;;;;;;;3.13;1.88;;;;;;;;;;5013041;28;20459;-83
2023/07/04 01:30:22;;;;;;;3.67;2.47;;;;;;;;;;5013096;28;20909;-84
2023/07/04 01:32:52;;;;;;;2.95;2.28;;;;;;;;;;5013188;28;20858;-83
2023/07/04 01:35:18;;;;;;;2.05;1.80;;;;;;;;;;5012980;28;20389;-84
2023/07/04 01:37:44;;;;;;;2.00;1.80;;;;;;;;;;5013050;28;20380;-84
2023/07/04 01:40:10;;;;;;;2.13;1.65;;;;;;;;;;4998670;28;20433;-84
2023/07/04 01:42:36;;;;;;;2.20;1.52;;;;;;;;;;5002314;28;20377;-83
2023/07/04 01:45:04;;;;;;;3.10;1.90;;;;;;;;;;5018055;28;20415;-83
2023/07/04 01:47:31;;;;;;;4.33;2.30;;;;;;;;;;5025974;28;20379;-84
2023/07/04 01:49:57;;;;;;;2.63;2.03;;;;;;;;;;5023099;28;20392;-83
2023/07/04 01:52:23;;;;;;;2.55;1.98;;;;;;;;;;5022402;28;20762;-83
2023/07/04 01:54:49;;;;;;;2.80;2.00;;;;;;;;;;5020397;28;20565;-83
2023/07/04 01:57:15;;;;;;;5.18;2.80;;;;;;;;;;5023548;28;20392;-83
2023/07/04 01:59:41;;;;;;;2.92;2.30;;;;;;;;;;5028011;28;20391;-83
2023/07/04 02:02:07;;;;;;;3.13;2.53;;;;;;;;;;5025205;28;20758;-84
2023/07/04 02:04:33;;;;;;;4.40;2.85;;;;;;;;;;5030240;28;20402;-83
2023/07/04 02:06:59;;;;;;;4.00;3.00;;;;;;;;;;5012657;28;20938;-84
2023/07/04 02:09:25;;;;;;;4.38;3.22;;;;;;;;;;5012606;28;20677;-83
2023/07/04 02:11:51;;;;;;;3.97;2.88;;;;;;;;;;5012404;28;20389;-84
2023/07/04 02:14:18;;;;;;;4.77;3.23;;;;;;;;;;5012509;28;20389;-83
2023/07/04 02:16:44;;;;;;;3.10;2.33;;;;;;;;;;5012511;28;20458;-83
2023/07/04 02:19:10;;;;;;;3.85;2.20;;;;;;;;;;4995024;28;20888;-84
2023/07/04 02:21:36;;;;;;;3.15;2.20;;;;;;;;;;5012347;28;20442;-83
2023/07/04 02:24:02;;;;;;;3.17;2.20;;;;;;;;;;5012436;28;20412;-83
2023/07/04 02:26:29;;;;;;;2.22;1.95;;;;;;;;;;5012432;28;20397;-83
2023/07/04 02:28:55;;;;;;;3.45;2.20;;;;;;;;;;4994798;28;20385;-83
2023/07/04 02:31:23;;;;;;;3.17;2.00;;;;;;;;;;5012169;28;20381;-83
2023/07/04 02:33:49;;;;;;;2.70;1.90;;;;;;;;;;5012409;28;20381;-83
2023/07/04 02:36:16;;;;;;;2.22;1.95;;;;;;;;;;5013578;28;20384;-83
2023/07/04 02:38:42;;;;;;;2.38;2.10;;;;;;;;;;5030011;28;20472;-83
2023/07/04 02:41:08;;;;;;;3.70;2.30;;;;;;;;;;5016289;28;20416;-83
2023/07/04 02:43:35;;;;;;;3.33;2.05;;;;;;;;;;5018406;28;20385;-83
2023/07/04 02:46:01;;;;;;;2.58;2.10;;;;;;;;;;5002668;28;20381;-83
2023/07/04 02:48:27;;;;;;;2.83;2.20;;;;;;;;;;5016317;28;20380;-84
2023/07/04 02:50:53;;;;;;;2.17;1.90;;;;;;;;;;5015945;28;20408;-83
2023/07/04 02:53:22;;;;;;;3.17;2.05;;;;;;;;;;5016396;28;20416;-84
2023/07/04 02:55:48;;;;;;;3.38;2.28;;;;;;;;;;5015885;28;20456;-83
2023/07/04 02:58:14;;;;;;;2.50;2.30;;;;;;;;;;5015979;28;20377;-83
2023/07/04 03:00:41;;;;;;;3.15;2.10;;;;;;;;;;5015845;28;20381;-83
2023/07/04 03:03:07;;;;;;;2.55;2.00;;;;;;;;;;5000891;28;20388;-84
2023/07/04 03:05:33;;;;;;;2.73;2.10;;;;;;;;;;5026949;28;20885;-83
2023/07/04 03:07:59;;;;;;;3.38;2.10;;;;;;;;;;5015664;28;20388;-84
2023/07/04 03:10:25;;;;;;;2.35;2.08;;;;;;;;;;5015997;28;20381;-83
2023/07/04 03:12:51;;;;;;;2.50;2.08;;;;;;;;;;5015828;28;20874;-83
2023/07/04 03:15:18;;;;;;;2.50;1.80;;;;;;;;;;5015710;28;20420;-83
2023/07/04 03:17:44;;;;;;;2.10;1.75;;;;;;;;;;5015510;28;20388;-84
2023/07/04 03:20:11;;;;;;;2.80;1.90;;;;;;;;;;5015655;28;20401;-83
2023/07/04 03:22:38;;;;;;;2.00;1.67;;;;;;;;;;5024905;28;20395;-84
2023/07/04 03:25:04;;;;;;;2.13;1.75;;;;;;;;;;5031527;28;20409;-83
2023/07/04 03:27:30;;;;;;;2.58;1.80;;;;;;;;;;5028851;28;20392;-84
2023/07/04 03:29:56;;;;;;;2.38;1.88;;;;;;;;;;5016739;28;20978;-84
2023/07/04 03:32:22;;;;;;;2.30;1.80;;;;;;;;;;5028244;28;20470;-83
2023/07/04 03:34:48;;;;;;;2.65;1.70;;;;;;;;;;5016121;28;20396;-83
2023/07/04 03:37:14;;;;;;;2.20;1.63;;;;;;;;;;5022163;28;20478;-84
2023/07/04 03:39:41;;;;;;;3.08;1.63;;;;;;;;;;5001294;28;20420;-84
2023/07/04 03:42:07;;;;;;;2.20;1.67;;;;;;;;;;5019560;28;20381;-83
2023/07/04 03:44:33;;;;;;;2.50;1.60;;;;;;;;;;5020192;28;20503;-83
2023/07/04 03:46:59;;;;;;;1.98;1.70;;;;;;;;;;5017247;28;20501;-84
2023/07/04 03:49:25;;;;;;;2.13;1.60;;;;;;;;;;5013699;28;20392;-84
2023/07/04 03:51:51;;;;;;;2.53;1.65;;;;;;;;;;5015626;28;20404;-83
2023/07/04 03:54:17;;;;;;;2.60;1.70;;;;;;;;;;5008328;28;20403;-83
2023/07/04 03:56:43;;;;;;;2.28;1.80;;;;;;;;;;4999895;28;20382;-84
2023/07/04 03:59:09;;;;;;;2.03;1.83;;;;;;;;;;5014628;28;20388;-84
2023/07/04 04:01:35;;;;;;;4.35;1.92;;;;;;;;;;5009837;28;20387;-83
2023/07/04 04:04:01;;;;;;;2.35;1.80;;;;;;;;;;5028142;28;20506;-83
2023/07/04 04:06:27;;;;;;;2.88;1.60;;;;;;;;;;5017496;28;20380;-83
2023/07/04 04:08:53;;;;;;;2.07;1.60;;;;;;;;;;5014905;28;20439;-83
2023/07/04 04:11:19;;;;;;;1.70;1.40;;;;;;;;;;5014733;28;20386;-83
2023/07/04 04:13:45;;;;;;;2.30;1.60;;;;;;;;;;5015136;28;20804;-83
2023/07/04 04:16:11;;;;;;;2.05;1.73;;;;;;;;;;5014678;28;20377;-83
2023/07/04 04:18:37;;;;;;;1.70;1.60;;;;;;;;;;5014459;28;20401;-83
2023/07/04 04:21:03;;;;;;;1.92;1.70;;;;;;;;;;5015319;28;20385;-84
2023/07/04 04:23:29;;;;;;;2.13;1.80;;;;;;;;;;5014306;28;20384;-83
2023/07/04 04:25:57;;;;;;;2.20;1.65;;;;;;;;;;5014743;28;20468;-83
2023/07/04 04:28:24;;;;;;;2.38;1.80;;;;;;;;;;5014367;28;20921;-83
2023/07/04 04:30:50;;;;;;;1.60;1.42;;;;;;;;;;5014720;28;20408;-83
2023/07/04 04:33:16;;;;;;;2.30;1.70;;;;;;;;;;5013871;28;20846;-83
2023/07/04 04:35:44;;;;;;;2.08;1.88;;;;;;;;;;5014068;28;20390;-83
2023/07/04 04:38:10;;;;;;;2.28;1.70;;;;;;;;;;5014086;28;20417;-83
2023/07/04 04:40:37;;;;;;;2.00;1.70;;;;;;;;;;5014211;28;20436;-83
2023/07/04 04:43:03;;;;;;;2.00;1.52;;;;;;;;;;5014285;28;20385;-83
2023/07/04 04:45:29;;;;;;;2.20;2.00;;;;;;;;;;5014080;28;20488;-83
2023/07/04 04:47:55;;;;;;;1.95;1.77;;;;;;;;;;5014002;28;20413;-84
2023/07/04 04:50:25;;;;;;;1.93;1.73;;;;;;;;;;4996507;28;20395;-83
2023/07/04 04:52:52;;;;;;;3.95;1.65;;;;;;;;;;5001424;28;20778;-83
2023/07/04 04:55:18;;;;;;;1.80;1.70;;;;;;;;;;5019454;28;20864;-83
2023/07/04 04:57:44;;;;;;;2.50;1.85;;;;;;;;;;5013622;28;20743;-83
2023/07/04 05:00:12;;;;;;;1.65;1.55;;;;;;;;;;5013514;28;20384;-83
2023/07/04 05:02:38;;;;;;;1.80;1.70;;;;;;;;;;5013562;28;20377;-83
2023/07/04 05:05:04;;;;;;;2.50;1.70;;;;;;;;;;5027485;28;20474;-83
2023/07/04 05:07:30;;;;;;;2.17;1.67;;;;;;;;;;5013625;28;20859;-84
2023/07/04 05:10:00;;;;;;;2.67;1.87;;;;;;;;;;5013463;28;20385;-84
2023/07/04 05:12:26;;;;;;;2.10;1.90;;;;;;;;;;5013567;28;20472;-83
2023/07/04 05:14:52;;;;;;;2.95;2.05;;;;;;;;;;5013398;28;20381;-83
2023/07/04 05:17:18;;;;;;;2.65;1.80;;;;;;;;;;5013545;28;20381;-84
2023/07/04 05:19:48;;;;;;;2.88;2.10;;;;;;;;;;5013241;28;20381;-84
2023/07/04 05:22:14;;;;;;;3.03;2.00;;;;;;;;;;4995788;28;20468;-84
2023/07/04 05:24:40;;;;;;;3.15;2.20;;;;;;;;;;5013441;28;20878;-84
2023/07/04 05:27:06;;;;;;;2.20;1.90;;;;;;;;;;5013016;28;20381;-83
2023/07/04 05:29:32;;;;;;;2.42;2.10;;;;;;;;;;5013101;28;20389;-83
2023/07/04 05:31:58;;;;;;;2.90;2.30;;;;;;;;;;5013133;28;20412;-84
2023/07/04 05:34:24;;;;;;;2.67;2.43;;;;;;;;;;5013231;28;20463;-82
2023/07/04 05:36:50;;;;;;;2.63;2.03;;;;;;;;;;5012907;28;20514;-83
2023/07/04 05:39:15;;;;;;;2.83;2.20;;;;;;;;;;5015155;28;20408;-82
2023/07/04 05:41:41;;;;;;;1.77;1.67;;;;;;;;;;4995461;28;20894;-83
2023/07/04 05:44:09;;;;;;;2.45;1.73;;;;;;;;;;5012902;28;20458;-86
2023/07/04 05:46:35;;;;;;;3.05;2.00;;;;;;;;;;5013202;28;20385;-86
2023/07/04 05:49:02;;;;;;;2.40;1.77;;;;;;;;;;5012583;28;20377;-86
2023/07/04 05:51:32;;;;;;;2.03;1.70;;;;;;;;;;4996098;28;20401;-86
2023/07/04 05:53:58;;;;;;;2.15;1.70;;;;;;;;;;5012625;28;20423;-86
2023/07/04 05:56:27;;;;;;;2.65;2.10;;;;;;;;;;5013060;28;20739;-88
2023/07/04 05:58:57;;;;;;;2.58;1.50;;;;;;;;;;5012731;28;20388;-87
2023/07/04 06:01:25;;;;;;;2.08;1.70;;;;;;;;;;5013063;28;20472;-87
2023/07/04 06:03:51;;;;;;;2.03;1.80;;;;;;;;;;5021143;28;20415;-88
2023/07/04 06:06:19;;;;;;;1.88;1.55;;;;;;;;;;5017682;28;20389;-87
2023/07/04 06:08:46;;;;;;;3.10;1.85;;;;;;;;;;5012593;28;20385;-87
2023/07/04 06:11:12;;;;;;;4.70;1.60;;;;;;;;;;5011769;28;20734;-87
2023/07/04 06:13:38;;;;;;;2.03;1.83;;;;;;;;;;4994630;28;20385;-87
2023/07/04 06:16:05;;;;;;;2.07;1.70;;;;;;;;;;5016943;28;20952;-87
2023/07/04 06:18:31;;;;;;;1.92;1.70;;;;;;;;;;5020110;28;20414;-88
2023/07/04 06:21:06;;;;;;;3.10;1.95;;;;;;;;;;5017317;28;20381;-87
2023/07/04 06:23:32;;;;;;;2.55;2.03;;;;;;;;;;5019485;28;20384;-87
2023/07/04 06:25:59;;;;;;;2.85;2.00;;;;;;;;;;5000297;28;20464;-89
2023/07/04 06:28:25;;;;;;;2.00;1.77;;;;;;;;;;5020680;28;20401;-88
2023/07/04 06:30:50;;;;;;;2.95;1.95;;;;;;;;;;5002436;28;20394;-87
2023/07/04 06:33:17;;;;;;;2.20;2.00;;;;;;;;;;5021337;28;20467;-87
2023/07/04 06:35:43;;;;;;;4.40;2.25;;;;;;;;;;5017464;28;20391;-87
2023/07/04 06:38:09;;;;;;;3.30;1.87;;;;;;;;;;5014580;28;20405;-88
2023/07/04 06:40:36;;;;;;;2.00;1.80;;;;;;;;;;5013206;28;20406;-86
2023/07/04 06:43:03;;;;;;;2.20;2.00;;;;;;;;;;5012376;28;20404;-88
2023/07/04 06:45:29;;;;;;;2.38;1.63;;;;;;;;;;5015375;28;20755;-87
2023/07/04 06:47:55;;;;;;;2.33;1.80;;;;;;;;;;5025406;28;20379;-87
2023/07/04 06:50:21;;;;;;;1.90;1.67;;;;;;;;;;5017586;28;20936;-88
2023/07/04 06:52:47;;;;;;;2.40;1.70;;;;;;;;;;5024972;28;20387;-87
2023/07/04 06:55:13;;;;;;;2.33;1.90;;;;;;;;;;5018444;28;20388;-89
2023/07/04 06:57:39;;;;;;;3.05;1.88;;;;;;;;;;5021834;28;20382;-86
2023/07/04 07:00:06;;;;;;;2.08;1.60;;;;;;;;;;5020233;28;20377;-87
2023/07/04 07:02:32;;;;;;;1.98;1.67;;;;;;;;;;5019996;28;20381;-85
2023/07/04 07:04:58;;;;;;;2.97;1.60;;;;;;;;;;5013919;28;20407;-87
2023/07/04 07:07:24;;;;;;;3.08;2.10;;;;;;;;;;5004357;28;20381;-87
2023/07/04 07:09:50;;;;;;;2.25;1.65;;;;;;;;;;5011807;28;20381;-86
2023/07/04 07:12:16;;;;;;;2.22;1.85;;;;;;;;;;4994612;28;20389;-87
2023/07/04 07:14:42;;;;;;;2.30;1.75;;;;;;;;;;5011885;28;20446;-86
2023/07/04 07:17:08;;;;;;;2.40;1.70;;;;;;;;;;5011980;28;20768;-87
2023/07/04 07:19:34;;;;;;;1.92;1.52;;;;;;;;;;4994358;28;20472;-89
2023/07/04 07:22:01;;;;;;;2.05;1.73;;;;;;;;;;5012513;28;20389;-88
2023/07/04 07:24:30;;;;;;;3.65;2.00;;;;;;;;;;5015497;28;20409;-82
2023/07/04 07:26:56;;;;;;;4.10;1.90;;;;;;;;;;5015293;28;20932;-84
2023/07/04 07:29:22;;;;;;;7.65;1.90;;;;;;;;;;4999955;28;21819;-84
2023/07/04 07:31:50;;;;;;;13.00;2.10;;;;;;;;;;5015328;28;21037;-83
2023/07/04 07:34:16;;;;;;;6.50;1.92;;;;;;;;;;5015381;28;20730;-85
2023/07/04 07:36:42;;;;;;;5.60;1.92;;;;;;;;;;5016941;28;20423;-83
2023/07/04 07:39:11;;;;;;;2.65;1.60;;;;;;;;;;5015426;28;20882;-84
2023/07/04 07:41:38;;;;;;;2.03;1.67;;;;;;;;;;5015609;28;20388;-84
2023/07/04 07:44:05;;;;;;;2.58;1.70;;;;;;;;;;5015063;28;20416;-84
2023/07/04 07:46:31;;;;;;;2.00;1.80;;;;;;;;;;5021794;28;20376;-85
2023/07/04 07:48:58;;;;;;;3.13;1.75;;;;;;;;;;5022512;28;20393;-85
2023/07/04 07:51:24;;;;;;;2.03;1.70;;;;;;;;;;5005029;28;20375;-84
2023/07/04 07:53:53;;;;;;;2.00;1.73;;;;;;;;;;5022111;28;20389;-85
2023/07/04 07:56:20;;;;;;;2.00;1.60;;;;;;;;;;5009440;28;20433;-84
2023/07/04 07:58:46;;;;;;;1.73;1.60;;;;;;;;;;5013843;28;20385;-85
2023/07/04 08:01:17;;;;;;;1.77;1.40;;;;;;;;;;5025685;28;20441;-84
2023/07/04 08:03:43;;;;;;;2.47;1.33;;;;;;;;;;5026452;28;20416;-84
2023/07/04 08:06:09;;;;;;;1.98;1.55;;;;;;;;;;5020024;28;20384;-84
2023/07/04 08:08:35;;;;;;;2.50;1.75;;;;;;;;;;5013695;28;20742;-83
2023/07/04 08:11:01;;;;;;;1.77;1.67;;;;;;;;;;5013836;28;20388;-83
2023/07/04 08:13:27;;;;;;;1.80;1.60;;;;;;;;;;5013702;28;20385;-85
2023/07/04 08:15:54;;;;;;;2.97;1.48;;;;;;;;;;5013807;28;20893;-84
2023/07/04 08:18:20;;;;;;;1.52;1.33;;;;;;;;;;5013509;28;20408;-83
2023/07/04 08:21:00;;;;;;;1.60;1.50;;;;;;;;;;5014048;28;20512;-84
2023/07/04 08:23:26;;;;;;;1.90;1.40;;;;;;;;;;5013465;28;20885;-83
2023/07/04 08:25:52;;;;;;;2.20;1.60;;;;;;;;;;5013556;28;20806;-82
2023/07/04 08:28:19;;;;;;;1.73;1.50;;;;;;;;;;5013387;28;20381;-83
2023/07/04 08:30:45;;;;;;;1.70;1.55;;;;;;;;;;5013536;28;20377;-83
2023/07/04 08:33:16;;;;;;;1.90;1.60;;;;;;;;;;5013129;28;20873;-84
2023/07/04 08:35:42;;;;;;;2.80;1.47;;;;;;;;;;5013143;28;20404;-84
2023/07/04 08:38:08;;;;;;;1.60;1.50;;;;;;;;;;5013111;28;20907;-83
2023/07/04 08:40:34;;;;;;;1.67;1.58;;;;;;;;;;5013292;28;20474;-83
2023/07/04 08:43:01;;;;;;;1.63;1.45;;;;;;;;;;5018865;28;20377;-83
2023/07/04 08:45:29;;;;;;;1.60;1.50;;;;;;;;;;5018759;28;20408;-82
2023/07/04 08:47:56;;;;;;;3.63;1.50;;;;;;;;;;5021084;28;20466;-84
2023/07/04 08:50:28;;;;;;;1.77;1.40;;;;;;;;;;5024578;28;20392;-84
2023/07/04 08:52:57;;;;;;;5.63;1.77;;;;;;;;;;5020090;28;20387;-81
2023/07/04 08:55:24;;;;;;;10.43;1.75;;;;;;;;;;5023848;28;20416;-82
2023/07/04 08:57:54;;;;;;;16.70;2.40;;;;;;;;;;5020230;28;20870;-82
2023/07/04 09:00:27;;;;;;;5.32;1.50;;;;;;;;;;5020178;28;20870;-81
2023/07/04 09:02:56;;;;;;;2.88;1.67;;;;;;;;;;5024965;28;20423;-82
2023/07/04 09:05:44;;;;;;;5.72;1.50;;;;;;;;;;5024032;28;20412;-82
2023/07/04 09:08:17;;;;;;;2.58;1.58;;;;;;;;;;5016014;28;20480;-81
2023/07/04 09:10:49;;;;;;;2.53;1.67;;;;;;;;;;5018147;28;20389;-82
2023/07/04 09:13:25;;;;;;;2.25;1.60;;;;;;;;;;5017369;28;20466;-82
2023/07/04 09:15:52;;;;;;;52.80;4.45;;;;;;;;;;4988597;28;20397;-82
2023/07/04 09:18:37;;;;;;;29.27;3.10;;;;;;;;;;5030172;28;20466;-82
2023/07/04 09:21:13;;;;;;;8.85;1.95;;;;;;;;;;4990297;28;20475;-81
2023/07/04 09:23:40;;;;;;;13.07;1.92;;;;;;;;;;5031232;28;20415;-81
2023/07/04 09:26:08;;;;;;;31.95;3.28;;;;;;;;;;5011000;28;20381;-81
2023/07/04 09:28:36;;;;;;;2.90;1.70;;;;;;;;;;5019189;28;20462;-80
2023/07/04 09:31:02;;;;;;;4.53;1.80;;;;;;;;;;5033138;28;20379;-80
2023/07/04 09:33:29;;;;;;;1.60;1.50;;;;;;;;;;5022387;28;20420;-81
2023/07/04 09:35:59;;;;;;;2.83;1.50;;;;;;;;;;5027615;28;20479;-80
2023/07/04 09:38:25;;;;;;;1.73;1.30;;;;;;;;;;5014489;28;20423;-82
2023/07/04 09:40:52;;;;;;;3.00;1.65;;;;;;;;;;4998614;28;20443;-83
2023/07/04 09:43:27;;;;;;;1.50;1.20;;;;;;;;;;5014460;28;20387;-82
2023/07/04 09:46:09;;;;;;;2.03;1.30;;;;;;;;;;5022050;28;20964;-81
2023/07/04 09:48:35;;;;;;;1.92;1.10;;;;;;;;;;5024916;28;20375;-81
2023/07/04 09:51:15;;;;;;;1.60;1.30;;;;;;;;;;5016442;28;20381;-81
2023/07/04 09:53:41;;;;;;;1.60;1.20;;;;;;;;;;5012748;28;20431;-82
2023/07/04 09:56:07;;;;;;;1.40;1.20;;;;;;;;;;5023942;28;20384;-81
2023/07/04 09:58:36;;;;;;;2.47;1.10;;;;;;;;;;5009507;28;20884;-81
2023/07/04 10:01:08;;;;;;;1.33;1.10;;;;;;;;;;5021422;28;20881;-81
2023/07/04 10:03:35;;;;;;;1.85;1.23;;;;;;;;;;5001193;28;20395;-82
2023/07/04 10:06:02;;;;;;;2.60;1.30;;;;;;;;;;5013505;28;20416;-81
2023/07/04 10:08:28;;;;;;;2.53;1.30;;;;;;;;;;5014130;28;20443;-81
2023/07/04 10:10:58;;;;;;;2.63;1.10;;;;;;;;;;5013370;28;20388;-81
2023/07/04 10:13:26;;;;;;;1.38;1.10;;;;;;;;;;5026753;28;20377;-81
2023/07/04 10:15:52;;;;;;;1.20;1.00;;;;;;;;;;5012714;28;20412;-81
2023/07/04 10:18:26;;;;;;;1.83;1.05;;;;;;;;;;4997569;28;20395;-81
2023/07/04 10:20:54;;;;;;;1.10;1.00;;;;;;;;;;5014382;28;20870;-81
2023/07/04 10:23:21;;;;;;;1.42;1.00;;;;;;;;;;5015446;28;20389;-81
2023/07/04 10:25:48;;;;;;;1.17;0.93;;;;;;;;;;5016764;28;20463;-83
2023/07/04 10:28:17;;;;;;;1.88;1.30;;;;;;;;;;5014333;28;20864;-84
2023/07/04 10:30:45;;;;;;;1.70;0.90;;;;;;;;;;5014231;28;20875;-83
2023/07/04 10:33:24;;;;;;;1.40;1.00;;;;;;;;;;5014286;28;20725;-83
2023/07/04 10:35:50;;;;;;;2.00;0.80;;;;;;;;;;5012838;28;20463;-83
2023/07/04 10:38:30;;;;;;;1.15;1.02;;;;;;;;;;5013815;28;20455;-83
2023/07/04 10:40:58;;;;;;;2.10;1.08;;;;;;;;;;5014104;28;20454;-84
2023/07/04 10:43:30;;;;;;;1.20;0.88;;;;;;;;;;5014181;28;20385;-83
2023/07/04 10:45:58;;;;;;;0.88;0.80;;;;;;;;;;5019419;28;20935;-83
2023/07/04 10:48:25;;;;;;;0.90;0.90;;;;;;;;;;5020715;28;20385;-83
2023/07/04 10:51:00;;;;;;;1.10;1.00;;;;;;;;;;4993802;28;20913;-84
2023/07/04 10:53:27;;;;;;;2.33;1.10;;;;;;;;;;5012310;28;20392;-83
2023/07/04 10:55:59;;;;;;;3.45;1.30;;;;;;;;;;5012077;28;20389;-84
2023/07/04 10:58:26;;;;;;;2.65;1.20;;;;;;;;;;5015832;28;20396;-83
2023/07/04 11:00:58;;;;;;;2.47;0.98;;;;;;;;;;5019999;28;20464;-83
2023/07/04 11:03:35;;;;;;;1.13;0.90;;;;;;;;;;5016148;28;20391;-83
2023/07/04 11:06:03;;;;;;;1.52;0.80;;;;;;;;;;5015943;28;20413;-83
2023/07/04 11:08:30;;;;;;;2.30;1.02;;;;;;;;;;5015836;28;20388;-83
2023/07/04 11:11:01;;;;;;;1.97;0.93;;;;;;;;;;5016032;28;20385;-82
2023/07/04 11:13:27;;;;;;;10.27;1.90;;;;;;;;;;5016005;28;20381;-82
2023/07/04 11:15:59;;;;;;;5.20;1.43;;;;;;;;;;5015768;28;20422;-82
2023/07/04 11:18:27;;;;;;;1.52;1.00;;;;;;;;;;5015603;28;20377;-81
2023/07/04 11:20:53;;;;;;;1.55;1.20;;;;;;;;;;5015699;28;20388;-82
2023/07/04 11:23:20;;;;;;;2.92;1.00;;;;;;;;;;5015524;28;20723;-82
2023/07/04 11:25:46;;;;;;;1.48;0.70;;;;;;;;;;5015525;28;20965;-83
2023/07/04 11:28:18;;;;;;;0.90;0.80;;;;;;;;;;4997420;28;20395;-84
2023/07/04 11:30:47;;;;;;;1.42;0.95;;;;;;;;;;5024408;28;20482;-84
2023/07/04 11:33:36;;;;;;;0.85;0.80;;;;;;;;;;5025802;28;20873;-84
2023/07/04 11:36:03;;;;;;;1.25;0.95;;;;;;;;;;5034473;28;20387;-84
2023/07/04 11:38:30;;;;;;;1.40;1.00;;;;;;;;;;5025680;28;20536;-85
2023/07/04 11:40:57;;;;;;;1.80;1.10;;;;;;;;;;5034607;28;20444;-85
2023/07/04 11:43:32;;;;;;;1.02;0.75;;;;;;;;;;5030090;28;20383;-84
2023/07/04 11:45:59;;;;;;;0.90;0.80;;;;;;;;;;5034062;28;20426;-84
2023/07/04 11:48:27;;;;;;;2.03;0.80;;;;;;;;;;5023585;28;20859;-84
2023/07/04 11:50:57;;;;;;;1.10;0.82;;;;;;;;;;5015015;28;20479;-84
2023/07/04 11:53:44;;;;;;;1.15;0.80;;;;;;;;;;4997693;28;20400;-85
2023/07/04 11:56:33;;;;;;;1.85;0.80;;;;;;;;;;5015024;28;20381;-83
2023/07/04 11:59:11;;;;;;;0.90;0.70;;;;;;;;;;4997373;28;20403;-81
2023/07/04 12:01:57;;;;;;;0.90;0.60;;;;;;;;;;4997199;28;20401;-81
2023/07/04 12:04:40;;;;;;;1.10;0.60;;;;;;;;;;5014674;28;20444;-80
2023/07/04 12:07:12;;;;;;;0.98;0.60;;;;;;;;;;5015045;28;20910;-81
2023/07/04 12:09:44;;;;;;;2.08;0.70;;;;;;;;;;5013295;28;20420;-81
2023/07/04 12:12:17;;;;;;;1.13;0.57;;;;;;;;;;5014592;28;20378;-80
2023/07/04 12:14:44;;;;;;;0.50;0.50;;;;;;;;;;5014272;28;20391;-81
2023/07/04 12:17:10;;;;;;;0.80;0.52;;;;;;;;;;5014728;28;20384;-81
2023/07/04 12:19:36;;;;;;;0.80;0.50;;;;;;;;;;5014340;28;20391;-80
2023/07/04 12:22:02;;;;;;;0.50;0.43;;;;;;;;;;5014543;28;20377;-80
2023/07/04 12:24:30;;;;;;;3.10;0.70;;;;;;;;;;5014681;28;20459;-82
2023/07/04 12:26:59;;;;;;;1.83;0.40;;;;;;;;;;5014448;28;20377;-81
2023/07/04 12:29:26;;;;;;;0.63;0.50;;;;;;;;;;5014306;28;20384;-82
2023/07/04 12:32:22;;;;;;;0.43;0.40;;;;;;;;;;4996691;28;20762;-80
2023/07/04 12:34:48;;;;;;;0.50;0.40;;;;;;;;;;4996763;28;20389;-81
2023/07/04 12:37:16;;;;;;;1.40;0.50;;;;;;;;;;5014523;28;20389;-81
2023/07/04 12:39:44;;;;;;;2.00;0.50;;;;;;;;;;5013901;28;20409;-80
2023/07/04 12:42:15;;;;;;;1.40;0.50;;;;;;;;;;5014200;28;20396;-81
2023/07/04 12:44:41;;;;;;;0.55;0.50;;;;;;;;;;4996562;28;20760;-81
2023/07/04 12:47:11;;;;;;;1.30;0.60;;;;;;;;;;5027863;28;20386;-82
2023/07/04 12:49:38;;;;;;;0.98;0.35;;;;;;;;;;5013948;28;20893;-81
2023/07/04 12:52:04;;;;;;;1.75;0.50;;;;;;;;;;5014076;28;20432;-82
2023/07/04 12:54:31;;;;;;;0.73;0.50;;;;;;;;;;5013784;28;20391;-81
2023/07/04 12:56:57;;;;;;;0.30;0.30;;;;;;;;;;5012592;28;20451;-81
2023/07/04 12:59:34;;;;;;;0.45;0.40;;;;;;;;;;5027289;28;20433;-81
2023/07/04 13:02:02;;;;;;;0.70;0.50;;;;;;;;;;5021677;28;20889;-81
2023/07/04 13:04:28;;;;;;;0.53;0.47;;;;;;;;;;5024483;28;20451;-80
2023/07/04 13:06:56;;;;;;;1.23;0.50;;;;;;;;;;5030673;28;20457;-80
2023/07/04 13:09:22;;;;;;;0.82;0.40;;;;;;;;;;5027526;28;20408;-81
2023/07/04 13:11:48;;;;;;;1.00;0.40;;;;;;;;;;5012799;28;20430;-80
2023/07/04 13:14:21;;;;;;;10.93;0.82;;;;;;;;;;5028226;28;20397;-80
2023/07/04 13:16:47;;;;;;;1.70;0.40;;;;;;;;;;5020144;28;20386;-81
2023/07/04 13:19:13;;;;;;;3.40;0.57;;;;;;;;;;5011079;28;20757;-80
2023/07/04 13:21:40;;;;;;;10.90;0.70;;;;;;;;;;5028775;28;20383;-80
2023/07/04 13:24:10;;;;;;;0.50;0.50;;;;;;;;;;5030274;28;20407;-82
2023/07/04 13:26:38;;;;;;;1.80;0.60;;;;;;;;;;5025516;28;20394;-82
2023/07/04 13:29:15;;;;;;;2.05;0.60;;;;;;;;;;5012969;28;20383;-79
2023/07/04 13:31:41;;;;;;;3.00;0.43;;;;;;;;;;5024858;28;20465;-80
2023/07/04 13:34:17;;;;;;;2.25;0.40;;;;;;;;;;5024532;28;20933;-81
2023/07/04 13:36:43;;;;;;;0.70;0.40;;;;;;;;;;5007188;28;20480;-81
2023/07/04 13:39:09;;;;;;;1.25;0.57;;;;;;;;;;5021722;28;20415;-81
2023/07/04 13:41:36;;;;;;;2.90;0.60;;;;;;;;;;5027153;28;20387;-82
2023/07/04 13:44:03;;;;;;;7.03;0.80;;;;;;;;;;5022467;28;20821;-79
2023/07/04 13:46:29;;;;;;;2.88;0.50;;;;;;;;;;5025890;28;20394;-81
2023/07/04 13:48:55;;;;;;;3.85;0.60;;;;;;;;;;5000031;28;20385;-80
2023/07/04 13:51:22;;;;;;;3.55;0.70;;;;;;;;;;5013082;28;20416;-81
2023/07/04 13:53:48;;;;;;;1.90;0.50;;;;;;;;;;5012311;28;20396;-81
2023/07/04 13:56:14;;;;;;;6.53;0.75;;;;;;;;;;5012381;28;20460;-81
2023/07/04 13:58:40;;;;;;;2.15;0.52;;;;;;;;;;5012728;28;20381;-81
2023/07/04 14:01:07;;;;;;;10.25;0.70;;;;;;;;;;5012640;28;20380;-81
2023/07/04 14:03:34;;;;;;;0.30;0.30;;;;;;;;;;5012807;28;20381;-80
2023/07/04 14:06:01;;;;;;;1.60;0.50;;;;;;;;;;5012156;28;20415;-80
2023/07/04 14:08:28;;;;;;;1.67;0.52;;;;;;;;;;5012627;28;20431;-80
2023/07/04 14:11:06;;;;;;;1.33;0.50;;;;;;;;;;4994994;28;20829;-80
2023/07/04 14:13:32;;;;;;;1.10;0.35;;;;;;;;;;5012577;28;20389;-81
2023/07/04 14:16:00;;;;;;;0.75;0.50;;;;;;;;;;5012681;28;20388;-81
2023/07/04 14:18:26;;;;;;;1.23;0.57;;;;;;;;;;5012477;28;20388;-82
2023/07/04 14:20:52;;;;;;;1.05;0.45;;;;;;;;;;5012690;28;20423;-81
2023/07/04 14:23:18;;;;;;;0.70;0.43;;;;;;;;;;4994742;28;20404;-82
2023/07/04 14:25:46;;;;;;;1.48;0.40;;;;;;;;;;5012371;28;20404;-82
2023/07/04 14:28:12;;;;;;;0.82;0.60;;;;;;;;;;5012271;28;20709;-82
2023/07/04 14:30:41;;;;;;;2.70;0.40;;;;;;;;;;5012416;28;20464;-81
2023/07/04 14:33:07;;;;;;;0.65;0.45;;;;;;;;;;5011572;28;20436;-82
2023/07/04 14:35:33;;;;;;;1.52;0.60;;;;;;;;;;5019305;28;20387;-81
2023/07/04 14:37:59;;;;;;;3.25;0.50;;;;;;;;;;5019036;28;20866;-82
2023/07/04 14:40:27;;;;;;;1.23;0.50;;;;;;;;;;5012431;28;20396;-81
2023/07/04 14:42:53;;;;;;;0.80;0.40;;;;;;;;;;4994487;28;20392;-82
2023/07/04 14:45:19;;;;;;;1.75;0.40;;;;;;;;;;5012085;28;20412;-81
2023/07/04 14:47:46;;;;;;;0.40;0.30;;;;;;;;;;5015008;28;20440;-82